Go Pro

iShares MSCI EAFE ETF (EFA) Institutional Ownership

iShares MSCI EAFE ETF logo
$108.48 +0.27 (+0.24%)
As of 12:48 PM Eastern
This is a fair market value price provided by Massive. Learn more.

Institutional Ownership Changes (13F Filings) for iShares MSCI EAFE ETF (NYSEARCA:EFA)

Current
Institutional Ownership
Percentage
79.80%
Number of
Institutional Buyers
(last 12 months)
1290
Total
Institutional Inflows
(last 12 months)
$7.35B
Number of
Institutional Sellers
(last 12 months)
894
Total
Institutional Outflows
(last 12 months)
$3.04B
Get EFA Insider Trade Alerts

Want to know when executives and insiders are buying or selling iShares MSCI EAFE ETF stock? Sign up for InsiderTrades.com's daily newsletter to get the latest insider transactions delivered to your inbox daily.

SMS is currently available in Australia, Belgium, Canada, France, Germany, Ireland, Italy, New Zealand, the Netherlands, Singapore, South Africa, Spain, Switzerland, the United Kingdom, and the United States. By entering your phone number and clicking the sign-up button, you agree to receive periodic text messages from MarketBeat at the phone number you submitted, including texts that may be sent using an automatic telephone dialing system. Message and data rates may apply. Message frequency will vary. Messages will consist of stock alerts, news stories, and partner advertisements/offers. Consent is not a condition of the purchase of any goods or services. Text HELP for help/customer support. Unsubscribe at any time by replying "STOP" to any text message that you receive from MarketBeat or by visiting our mailing preferences page. Read our full terms of service and privacy policy.
Skip Chart & View Institutional Buying and Selling Data

EFA Institutional Buying and Selling by Quarter

iShares MSCI EAFE ETF Major Shareholders & Ownership History

Reporting DateMajor Shareholder NameShares HeldMarket Value% of PortfolioQuarterly Change in SharesOwnership in CompanyDetails
9/2/2026 1607 Capital Partners LLC65,725$6.83M0.3%N/A0.009%
9/2/2026 Second Line Capital LLC21,544$2.24M0.4%-2.2%0.003%
8/27/2026 Corient Private Wealth LP1,655,900$172.02M0.2%-18.3%0.224%
8/27/2026 Tucker Asset Management LLC8,096$841K0.2%+10.0%0.001%
8/26/2026 HORAN Wealth LLC10,671$1.11M0.1%-49.4%0.001%
8/26/2026 HighTower Advisors LLC1,680,238$174.54M0.2%+0.7%0.227%
8/25/2026 Tobias Financial Advisors Inc.22,933$2.38M0.3%-14.2%0.003%
8/24/2026 Serenity Investment Advisors26,410$2.84M1.2%+0.9%0.004%
8/23/2026 Studio Investment Management LLC14,106$1.47M0.2%+30.7%0.002%
8/23/2026 Washington Trust Advisors Inc.8,701$904K0.1%-2.2%0.001%
8/23/2026 Ameritas Advisory Services LLC27,848$2.89M0.1%+40.4%0.004%
8/23/2026 Wedmont Private Capital19,369$2.02M0.1%-4.9%0.003%
8/23/2026 Kintra Wealth LLC6,619$719K0.0%+62.9%0.001%
8/23/2026 HB Wealth Management LLC305,287$31.71M0.2%-0.4%0.041%
8/23/2026 Angeles Wealth Management LLC100,725$10.46M0.4%+44.5%0.014%
8/23/2026 Unique Wealth LLC360,925$37.49M4.4%+0.7%0.049%
8/23/2026 Kaydan Wealth Management Inc.3,665$381K0.1%-3.0%0.000%
8/22/2026 Rose Capital Advisors LLC6,210$645K0.3%N/A0.001%
8/22/2026 Compass Financial Management LLC3,995$416K0.0%N/A0.001%
8/22/2026 NBH Bank92,429$9.60M4.1%N/A0.013%
8/22/2026 Gainline Financial Partners LLC6,250$649K0.6%N/A0.001%
8/22/2026 William John Sempolinski20,970$2.18M0.9%N/A0.003%
8/22/2026 Tenet Wealth Partners LLC2,762$287K0.2%N/A0.000%
8/22/2026 Maloon Powers Pitre Higgins & Dennehy LLC47,515$4.94M1.7%N/A0.006%
8/22/2026 Centrica Wealth Management LLC393$40K0.0%N/A0.000%
8/22/2026 Old Mission Investment Co LLC2,531$263K0.1%N/A0.000%
8/22/2026 Highland Investment Advisors LLC15,388$1.60M0.7%N/A0.002%
8/22/2026 Hopwood Nicholas Hunter3,643$378K0.1%+7.1%0.000%
8/22/2026 Cooke Wealth Management LLC74,031$7.69M6.3%-1.7%0.010%
8/22/2026 Vested Financial Planning LLC6,805$707K0.5%+2.3%0.001%
8/22/2026 Valued Retirements Inc.4,796$498K0.4%-65.9%0.001%
8/22/2026 Copley Financial Group Inc.2,356$245K0.1%-8.9%0.000%
8/22/2026 Tudor Financial Inc.25,955$2.70M1.2%+368.8%0.004%
8/22/2026 NWF Advisory Services Inc.52,072$5.41M0.5%+23.9%0.007%
8/22/2026 Rogco LP1,924$200K0.1%+16.0%0.000%
8/22/2026 TD Waterhouse Canada Inc.127,379$13.13M0.0%+4.7%0.017%
8/22/2026 Premier Path Wealth Partners LLC5,412$562K0.1%+26.2%0.001%
8/22/2026 United Community Bank92,548$9.61M3.1%-0.4%0.013%
8/22/2026 Concurrent Investment Advisors LLC418,507$43.47M0.4%+9.6%0.057%
8/22/2026 Allen Mooney & Barnes Investment Advisors LLC77,190$8.02M1.2%-2.1%0.010%
Three companies about to leapfrog Nvidia [And transform the entire industry] (Ad)

AI data centers have a power problem nobody likes to talk about. A single rack of computers can now use more electricity than an entire office building. One new chip, which looks more like a piece of plywood than a processor, delivers similar performance on a fraction of the power. Tech investing veteran George Gilder says that efficiency gap could decide who wins the next stage of AI. Gilder has identified three companies positioned around this power breakthrough, calling them the Trillion Dollar Triangle.tc pixel

See the three companies behind this AI power breakthrough now
8/21/2026 Alley Investment Management Company LLC8,945$929K0.1%-1.6%0.001%
8/21/2026 Athena Investment Management16,414$1.71M1.0%-21.3%0.002%
8/21/2026 Greenspring Advisors LLC9,549$992K0.1%-3.2%0.001%
8/21/2026 Continuum Advisory LLC8,516$885K0.1%+2.5%0.001%
8/21/2026 Alamar Capital Management LLC102,978$10.70M5.4%-2.2%0.014%
8/21/2026 InTrack Investment Management Inc5,698$592K0.3%-21.5%0.001%
8/21/2026 Tranquilli Financial Advisor LLC8,737$908K0.5%-25.0%0.001%
8/21/2026 MBA Advisors LLC7,600$789K0.3%-6.2%0.001%
8/21/2026 Firestone Capital Management15,246$1.58M0.3%-1.8%0.002%
8/21/2026 Resolute Advisors LLC64,437$6.69M1.6%-17.7%0.009%
8/21/2026 Atticus Wealth Management LLC29,860$3.10M0.7%+2.9%0.004%
8/21/2026 SkyOak Wealth LLC6,942$721K0.1%+4.6%0.001%
8/21/2026 XML Financial LLC39,563$4.11M0.3%-2.7%0.005%
8/21/2026 KFA Private Wealth Group LLC18,800$1.95M0.5%-10.0%0.003%
8/21/2026 Symphony Financial Ltd. Co.3,788$393K0.0%N/A0.001%
8/21/2026 Chesapeake Wealth Management74,182$7.71M2.2%-0.4%0.010%
8/21/2026 Independence Bank of Kentucky127,608$13.26M1.5%-0.8%0.017%
8/21/2026 Murphy Middleton Hinkle & Parker Inc.89,481$9.30M3.8%+3.9%0.012%
8/21/2026 Midwest Professional Planners LTD.66,600$6.92M1.3%-32.4%0.009%
8/21/2026 Acorn Wealth Advisors LLC6,999$727K0.2%+18.4%0.001%
8/21/2026 Triumph Capital Management1,037$108K0.0%-10.8%0.000%
8/21/2026 Solstein Capital LLC51,881$5.39M1.8%-0.6%0.007%
8/20/2026 LGL Partners LLC128,370$13.34M5.0%-0.7%0.017%
8/20/2026 Proficio Capital Partners LLC3,343$347K0.0%-16.6%0.000%
8/20/2026 Nwam LLC35,997$3.74M0.2%-0.8%0.005%
8/20/2026 Rehmann Capital Advisory Group40,980$4.26M0.2%+2.0%0.006%
8/20/2026 Denver PWM LLC22,165$2.41M0.7%+1.1%0.003%
8/20/2026 Orgel Wealth Management LLC35,489$3.69M0.1%+5.5%0.005%
8/20/2026 Oarsman Capital Inc.8,031$834K0.1%+1.2%0.001%
8/20/2026 Ancora Advisors LLC7,095$737K0.0%-14.6%0.001%
8/20/2026 Sigma Planning Corp9,398$976K0.0%+2.2%0.001%
8/20/2026 Benjamin Edwards Inc.14,999$1.56M0.0%-5.9%0.002%
8/20/2026 GTS Securities LLC7,745$805K0.0%-61.8%0.001%
8/20/2026 Flputnam Investment Management Co.266,958$27.73M0.3%+10.6%0.036%
8/20/2026 Northwestern Mutual Wealth Management Co.2,541,735$264.04M0.1%+3.5%0.344%
8/20/2026 Wedbush Securities Inc.23,093$2.40M0.1%+1.7%0.003%
8/20/2026 Thornburg Investment Management Inc.122,310$12.71M0.1%-4.6%0.017%
8/20/2026 Okabena Investment Services Inc.107,214$11.14M2.0%+2.4%0.015%
8/20/2026 Greenleaf Trust416,146$43.23M0.4%-2.1%0.056%
8/19/2026 Capital Advisors Inc. OK2,082$216K0.0%-32.4%0.000%
8/19/2026 Trustmark Bank Trust Department629,126$65.35M3.9%-0.3%0.085%
8/19/2026 UBS AM a distinct business unit of UBS ASSET MANAGEMENT AMERICAS LLC86,458$8.98M0.0%-22.8%0.012%
8/19/2026 Washington Trust Bank237,804$24.70M1.7%+77.0%0.032%
8/19/2026 Ferguson Wellman Capital Management Inc.57,738$6.00M0.1%+9.7%0.008%
8/19/2026 Chapin Davis Inc.4,917$511K0.1%-61.9%0.001%
8/19/2026 Lincoln Capital Corp7,278$756K0.2%-1.9%0.001%
8/19/2026 Hsbc Holdings PLC575,294$59.60M0.0%-1.4%0.078%
8/19/2026 Kingsview Wealth Management LLC33,668$3.50M0.0%-12.3%0.005%
8/18/2026 Beacon Pointe Advisors LLC626,173$65.05M0.3%-2.6%0.085%
8/18/2026 Rakuten Investment Management Inc.73,784$7.63M0.0%-52.7%0.010%
Anthropic’s $65 Billion Surge: One backdoor got there first (Ad)

Anthropic's annualized revenue run rate hit $65 billion, up from $47 billion in May and roughly $9 billion at the end of 2025, according to Reuters. With September 29 approaching, one publicly traded vehicle holds Anthropic as its largest position alongside Databricks and Anduril, and can be bought through a standard brokerage account.tc pixel

Watch the free briefing now to learn about this Anthropic backdoor opportunity.
8/18/2026 Denver PWM LLC22,165$2.41M0.8%+1.1%0.003%
8/18/2026 Glenview Trust Co25,190$2.62M0.0%-0.4%0.003%
8/18/2026 United Capital Financial Advisors LLC123,569$12.84M0.1%+3.6%0.017%
8/18/2026 Dearborn Partners LLC3,122$324K0.0%N/A0.000%
8/18/2026 Yukon Wealth Management Inc.7,843$815K0.2%N/A0.001%
8/18/2026 Bank OZK20,838$2.17M0.6%-0.6%0.003%
8/18/2026 Equitable Holdings Inc.346,402$35.98M0.2%-21.8%0.047%
8/18/2026 Centaurus Financial Inc.86,087$8.94M0.3%+4.6%0.012%
8/18/2026 Integrated Investment Consultants LLC22,291$2.32M0.5%+8.3%0.003%
8/18/2026 Coastal Bridge Advisors LLC2,571$267K0.0%N/A0.000%


EFA Institutional Ownership - Frequently Asked Questions

During the previous two years, 2,301 institutional investors and hedge funds held shares of iShares MSCI EAFE ETF. The most heavily invested institutionals were Bank of America Corp DE ($4.18B), Goldman Sachs Group Inc. ($3.81B), Morgan Stanley ($3.04B), JPMorgan Chase & Co. ($2.07B), Northern Trust Corp ($2.05B), Northwestern Mutual Investment Management Company LLC ($1.51B), and TD Asset Management Inc ($816.28M).Learn more on iShares MSCI EAFE ETF's institutional investors.

79.80% of iShares MSCI EAFE ETF's stock is owned by institutional investors. Learn more on EFA's institutional investor holdings.

Of the 1,968 institutional investors that purchased iShares MSCI EAFE ETF's stock in the last 24 months, the following investors and hedge funds have bought the highest volume of shares: Northwestern Mutual Wealth Management Co. ($9.13M), Goldman Sachs Group Inc. ($7.81M), Mackenzie Financial Corp ($6.01M), Bessemer Group Inc. ($5.58M), Capital International Investors ($5.30M), Causeway Capital Management LLC ($4.95M), and Morgan Stanley ($4.24M).

Institutional investors have bought a total of 76,928,233 shares in the last 24 months. This purchase volume represents approximately $7.35B in transactions.

Of the 894 institutional investors that sold iShares MSCI EAFE ETF's stock in the last 24 months, the following investors and hedge funds have sold the highest volume of shares: Laurel Wealth Advisors LLC ($3.25M), CIBC Asset Management Inc ($1.93M), SG Americas Securities LLC ($1.73M), Bank of Nova Scotia ($1.62M), WCM Investment Management LLC ($1.43M), Hsbc Holdings PLC ($1.40M), and State Board of Administration of Florida Retirement System ($1.28M).

Institutional investors have sold a total of 31,778,664 shares in the last 24 months. This volume of shares sold represents approximately $3.04B in transactions.



Institutional ownership data for NYSEARCA:EFA is compiled from quarterly 13F filings submitted to the U.S. Securities and Exchange Commission (SEC), with the most recent received on 9/2/2026. New 13F filings are added each quarter as they're published.
From Our Partners